Time;durP1;ratioP1;P1;durP2;ratioP2;P2;SDS_P1;SDS_P2;PMS_P1;PMS_P2;Temp;Humidity;BMP_temperature;BMP_pressure;BME280_temperature;BME280_humidity;BME280_pressure;Samples;Min_cycle;Max_cycle;Signal;HPM_P1;HPM_P2
2021/07/24 00:00:41;;;;;;;10.63;6.07;;;17.90;94.70;;;;;;4843128;29;20030;-72
2021/07/24 00:03:06;;;;;;;10.23;6.70;;;17.90;94.70;;;;;;4842601;29;20418;-72
2021/07/24 00:05:32;;;;;;;9.45;6.22;;;18.00;94.80;;;;;;4843656;29;20022;-72
2021/07/24 00:07:57;;;;;;;10.75;6.43;;;17.90;94.70;;;;;;4842977;29;20030;-74
2021/07/24 00:10:23;;;;;;;12.90;7.28;;;17.80;94.90;;;;;;4842820;29;20080;-72
2021/07/24 00:12:52;;;;;;;13.07;7.10;;;17.80;95.00;;;;;;4842958;29;20427;-72
2021/07/24 00:15:17;;;;;;;10.80;6.93;;;17.70;95.00;;;;;;4842843;29;20052;-72
2021/07/24 00:17:43;;;;;;;10.77;6.68;;;17.70;95.20;;;;;;4843305;29;20580;-71
2021/07/24 00:20:09;;;;;;;13.00;7.45;;;17.60;95.20;;;;;;4842978;29;20457;-72
2021/07/24 00:22:35;;;;;;;15.20;7.20;;;17.60;95.30;;;;;;4842442;29;20055;-72
2021/07/24 00:25:01;;;;;;;12.02;7.70;;;17.50;95.30;;;;;;4841575;29;20038;-71
2021/07/24 00:27:26;;;;;;;9.95;6.93;;;17.50;95.40;;;;;;4826188;29;20435;-72
2021/07/24 00:29:54;;;;;;;11.15;7.25;;;17.40;95.60;;;;;;4843032;29;20086;-72
2021/07/24 00:32:20;;;;;;;14.43;7.10;;;17.30;95.60;;;;;;4842566;29;20466;-71
2021/07/24 00:34:45;;;;;;;10.45;7.03;;;17.30;95.60;;;;;;4842526;29;20053;-73
2021/07/24 00:37:13;;;;;;;11.70;7.28;;;17.30;95.70;;;;;;4842442;29;20492;-73
2021/07/24 00:39:38;;;;;;;12.02;8.27;;;17.20;95.70;;;;;;4842440;29;20037;-72
2021/07/24 00:42:20;;;;;;;10.98;7.05;;;17.10;95.80;;;;;;4841271;29;20755;-73
2021/07/24 00:44:47;;;;;;;11.63;7.13;;;17.20;95.90;;;;;;4842786;29;20045;-71
2021/07/24 00:47:18;;;;;;;14.52;8.35;;;17.10;96.10;;;;;;4842225;29;20063;-71
2021/07/24 00:49:48;;;;;;;11.88;7.78;;;17.00;96.10;;;;;;4826042;29;20035;-71
2021/07/24 00:52:14;;;;;;;10.90;7.32;;;17.00;96.00;;;;;;4841559;29;20106;-71
2021/07/24 00:54:41;;;;;;;12.93;7.57;;;17.10;96.10;;;;;;4842189;29;20075;-72
2021/07/24 00:57:07;;;;;;;12.75;7.28;;;17.00;96.10;;;;;;4825355;29;20113;-72
2021/07/24 00:59:36;;;;;;;11.55;8.23;;;17.00;96.20;;;;;;4842297;29;20098;-71
2021/07/24 01:02:03;;;;;;;16.15;8.15;;;17.00;96.50;;;;;;4841476;29;20121;-72
2021/07/24 01:04:29;;;;;;;12.65;7.78;;;16.90;96.30;;;;;;4841944;29;20030;-71
2021/07/24 01:06:56;;;;;;;13.10;7.82;;;16.90;96.40;;;;;;4841874;29;20413;-71
2021/07/24 01:09:24;;;;;;;12.05;8.35;;;16.90;96.30;;;;;;4841734;29;20026;-72
2021/07/24 01:11:50;;;;;;;14.02;7.88;;;17.00;96.30;;;;;;4842343;29;20037;-72
2021/07/24 01:14:16;;;;;;;12.55;8.05;;;16.90;96.40;;;;;;4841774;29;20038;-73
2021/07/24 01:16:41;;;;;;;20.45;8.82;;;16.80;96.40;;;;;;4841660;29;20061;-72
2021/07/24 01:19:07;;;;;;;13.35;8.20;;;16.80;96.40;;;;;;4841901;29;20030;-72
2021/07/24 01:21:32;;;;;;;16.77;8.68;;;16.90;96.60;;;;;;4841702;29;20030;-72
2021/07/24 01:23:58;;;;;;;13.27;8.40;;;17.00;96.30;;;;;;4842061;29;20034;-72
2021/07/24 01:26:30;;;;;;;14.85;9.13;;;17.00;96.30;;;;;;4840549;29;20050;-72
2021/07/24 01:28:56;;;;;;;13.55;8.30;;;17.00;96.10;;;;;;4825313;29;20373;-72
2021/07/24 01:31:23;;;;;;;15.00;8.25;;;17.00;96.10;;;;;;4841346;29;20038;-72
2021/07/24 01:33:49;;;;;;;16.95;8.88;;;17.10;96.20;;;;;;4841446;29;20463;-73
2021/07/24 01:36:14;;;;;;;12.45;8.57;;;17.00;96.30;;;;;;4852160;29;20034;-72
2021/07/24 01:38:42;;;;;;;15.60;8.50;;;17.00;96.30;;;;;;4860108;29;20553;-71
2021/07/24 01:41:12;;;;;;;13.70;8.38;;;16.90;96.40;;;;;;4859743;29;20030;-72
2021/07/24 01:43:38;;;;;;;14.73;8.60;;;16.90;96.50;;;;;;4859517;29;20042;-73
2021/07/24 01:46:05;;;;;;;17.73;8.55;;;16.80;96.40;;;;;;4859523;29;20053;-71
2021/07/24 01:48:45;;;;;;;15.02;8.75;;;16.90;96.40;;;;;;4859545;29;20106;-71
2021/07/24 01:54:02;;;;;;;17.45;9.05;;;17.00;96.30;;;;;;4860266;29;20090;-73
2021/07/24 01:56:31;;;;;;;13.93;9.48;;;16.90;96.20;;;;;;4843083;29;20495;-71
2021/07/24 01:58:57;;;;;;;16.25;9.10;;;16.90;96.10;;;;;;4843172;29;20089;-72
2021/07/24 02:01:24;;;;;;;12.52;8.27;;;17.00;96.30;;;;;;4843192;29;20041;-72
2021/07/24 02:04:10;;;;;;;16.70;8.55;;;16.90;96.30;;;;;;4859353;29;20061;-74
2021/07/24 02:06:36;;;;;;;11.93;8.68;;;16.90;96.40;;;;;;4859397;29;20376;-73
2021/07/24 02:09:03;;;;;;;13.60;8.45;;;16.90;96.50;;;;;;4843443;29;20489;-73
2021/07/24 02:11:29;;;;;;;15.25;9.88;;;16.80;96.50;;;;;;4859197;29;20473;-73
2021/07/24 02:13:55;;;;;;;16.17;9.10;;;16.90;96.40;;;;;;4859042;29;20041;-71
2021/07/24 02:16:20;;;;;;;13.05;9.02;;;16.80;96.40;;;;;;4859112;29;20079;-72
2021/07/24 02:18:48;;;;;;;15.77;8.77;;;16.80;96.30;;;;;;4859165;29;20062;-71
2021/07/24 02:21:14;;;;;;;13.60;9.05;;;16.90;96.40;;;;;;4859118;29;20068;-71
2021/07/24 02:23:39;;;;;;;18.67;10.82;;;16.80;96.40;;;;;;4859272;29;20065;-73
2021/07/24 02:26:05;;;;;;;16.65;8.93;;;16.80;96.40;;;;;;4858916;29;20038;-73
2021/07/24 02:28:31;;;;;;;14.38;8.95;;;16.80;96.40;;;;;;4859345;29;20102;-71
2021/07/24 02:30:56;;;;;;;16.10;9.82;;;16.80;96.40;;;;;;4858780;29;20034;-71
2021/07/24 02:33:22;;;;;;;16.02;9.55;;;16.80;96.40;;;;;;4858818;29;20026;-71
2021/07/24 02:35:49;;;;;;;14.00;9.10;;;16.80;96.40;;;;;;4859437;29;20044;-72
2021/07/24 02:38:15;;;;;;;15.73;9.15;;;16.70;96.40;;;;;;4842419;29;20118;-72
2021/07/24 02:40:41;;;;;;;14.38;7.93;;;16.70;96.50;;;;;;4858757;29;20078;-72
2021/07/24 02:43:06;;;;;;;17.15;9.57;;;16.70;96.70;;;;;;4842313;29;20073;-72
2021/07/24 02:45:32;;;;;;;17.35;9.73;;;16.70;96.50;;;;;;4858842;29;20218;-72
2021/07/24 02:47:57;;;;;;;14.13;8.90;;;16.70;96.50;;;;;;4859345;29;20572;-71
2021/07/24 02:50:24;;;;;;;14.23;8.85;;;16.60;96.60;;;;;;4858754;29;20124;-73
2021/07/24 02:52:50;;;;;;;13.88;8.73;;;16.60;96.50;;;;;;4858752;29;20086;-72
2021/07/24 02:55:16;;;;;;;14.98;9.07;;;16.60;96.60;;;;;;4858601;29;20041;-71
2021/07/24 02:57:42;;;;;;;13.57;8.27;;;16.60;96.50;;;;;;4858617;29;20044;-72
2021/07/24 03:00:08;;;;;;;15.60;9.60;;;16.60;96.50;;;;;;4858606;29;20026;-71
2021/07/24 03:02:33;;;;;;;15.20;8.95;;;16.60;96.50;;;;;;4842270;29;20061;-71
2021/07/24 03:04:59;;;;;;;17.35;9.20;;;16.60;96.60;;;;;;4858513;29;20558;-71
2021/07/24 03:07:25;;;;;;;12.65;8.60;;;16.60;96.60;;;;;;4858612;29;20080;-71
2021/07/24 03:09:50;;;;;;;14.23;8.90;;;16.60;96.70;;;;;;4859059;29;20045;-72
2021/07/24 03:12:17;;;;;;;16.63;9.52;;;16.60;96.70;;;;;;4858401;29;20043;-72
2021/07/24 03:14:43;;;;;;;15.75;9.02;;;16.60;96.70;;;;;;4859756;29;20095;-72
2021/07/24 03:17:09;;;;;;;15.70;9.10;;;16.60;96.60;;;;;;4862084;29;20057;-73
2021/07/24 03:19:35;;;;;;;14.15;8.40;;;16.50;96.80;;;;;;4862270;29;20076;-71
2021/07/24 03:22:00;;;;;;;18.80;8.73;;;16.60;96.70;;;;;;4862258;29;20494;-72
2021/07/24 03:24:26;;;;;;;14.52;8.68;;;16.60;96.60;;;;;;4862225;29;20036;-71
2021/07/24 03:26:51;;;;;;;16.73;9.27;;;16.60;96.70;;;;;;4862377;29;20025;-72
2021/07/24 03:29:17;;;;;;;13.75;8.88;;;16.60;96.70;;;;;;4861902;29;20040;-71
2021/07/24 03:31:43;;;;;;;16.92;9.68;;;16.60;96.70;;;;;;4861814;29;20037;-72
2021/07/24 03:34:08;;;;;;;15.60;9.02;;;16.60;96.60;;;;;;4861822;29;20393;-70
2021/07/24 03:36:34;;;;;;;15.23;8.60;;;16.50;96.70;;;;;;4861841;29;20128;-71
2021/07/24 03:38:59;;;;;;;19.13;9.77;;;16.60;96.50;;;;;;4862183;29;20048;-70
2021/07/24 03:41:25;;;;;;;15.95;8.93;;;16.50;96.70;;;;;;4861759;29;20058;-72
2021/07/24 03:43:51;;;;;;;16.15;8.90;;;16.60;96.60;;;;;;4861722;29;20121;-72
2021/07/24 03:46:21;;;;;;;16.58;8.68;;;16.60;96.50;;;;;;4861487;29;20102;-72
2021/07/24 03:48:48;;;;;;;16.38;9.15;;;16.50;96.50;;;;;;4861670;29;20041;-72
2021/07/24 03:51:15;;;;;;;16.23;9.65;;;16.50;96.60;;;;;;4861621;29;20029;-72
2021/07/24 03:53:41;;;;;;;15.57;9.02;;;16.50;96.80;;;;;;4861901;29;20082;-72
2021/07/24 03:56:27;;;;;;;15.13;9.07;;;16.30;96.80;;;;;;4861618;29;20029;-72
2021/07/24 03:58:53;;;;;;;15.73;9.55;;;16.30;96.90;;;;;;4844539;29;20421;-73
2021/07/24 04:01:21;;;;;;;17.17;8.77;;;16.20;96.90;;;;;;4861443;29;20112;-72
2021/07/24 04:03:47;;;;;;;;;;;16.10;97.00;;;;;;4845408;29;20064;-72
2021/07/24 04:06:24;;;;;;;14.48;8.65;;;16.10;97.00;;;;;;4861452;29;20003;-72
2021/07/24 04:08:50;;;;;;;15.50;9.27;;;16.00;97.10;;;;;;4861892;29;20631;-72
2021/07/24 04:11:19;;;;;;;16.23;8.88;;;15.90;97.10;;;;;;4861214;29;20468;-73
2021/07/24 04:13:45;;;;;;;18.83;9.18;;;15.90;97.30;;;;;;4861331;29;20033;-72
2021/07/24 04:16:11;;;;;;;16.52;9.20;;;15.90;97.30;;;;;;4861280;29;20045;-74
2021/07/24 04:18:37;;;;;;;15.10;8.32;;;16.00;97.30;;;;;;4861379;29;20388;-73
2021/07/24 04:21:03;;;;;;;13.68;8.98;;;15.90;97.30;;;;;;4845308;29;20034;-73
2021/07/24 04:23:29;;;;;;;14.75;8.63;;;15.90;97.30;;;;;;4861271;29;20180;-73
2021/07/24 04:25:55;;;;;;;15.65;8.82;;;15.90;97.30;;;;;;4860296;29;20133;-71
2021/07/24 04:28:21;;;;;;;15.07;9.57;;;16.00;97.30;;;;;;4860571;29;20052;-71
2021/07/24 04:30:46;;;;;;;14.95;9.23;;;16.10;97.20;;;;;;4860870;29;20038;-73
2021/07/24 04:33:12;;;;;;;14.70;9.13;;;16.10;97.20;;;;;;4860948;29;20033;-72
2021/07/24 04:35:43;;;;;;;17.35;9.65;;;16.20;97.20;;;;;;4861432;29;20472;-72
2021/07/24 04:38:09;;;;;;;14.73;8.85;;;16.20;97.10;;;;;;4844385;29;20038;-71
2021/07/24 04:40:37;;;;;;;17.40;8.90;;;16.20;97.10;;;;;;4860880;29;20049;-71
2021/07/24 04:43:02;;;;;;;;;;;16.20;97.10;;;;;;4861070;29;20037;-71
2021/07/24 04:45:28;;;;;;;16.25;9.18;;;16.20;97.10;;;;;;4860806;29;19985;-72
2021/07/24 04:47:54;;;;;;;13.52;9.50;;;16.30;97.20;;;;;;4861071;29;20045;-70
2021/07/24 04:50:19;;;;;;;15.38;9.77;;;16.30;97.10;;;;;;4844614;29;20061;-72
2021/07/24 04:52:45;;;;;;;14.90;8.65;;;16.30;97.10;;;;;;4844432;29;20041;-72
2021/07/24 04:55:11;;;;;;;16.50;9.20;;;16.30;97.10;;;;;;4844219;29;20037;-72
2021/07/24 04:57:37;;;;;;;13.68;8.95;;;16.40;97.10;;;;;;4860369;29;20040;-73
2021/07/24 05:00:06;;;;;;;15.38;9.27;;;16.40;97.10;;;;;;4860739;29;20037;-72
2021/07/24 05:02:31;;;;;;;16.77;8.38;;;16.50;97.10;;;;;;4860234;29;20060;-72
2021/07/24 05:04:57;;;;;;;15.98;9.05;;;16.50;97.00;;;;;;4844169;29;20112;-72
2021/07/24 05:07:23;;;;;;;13.77;9.05;;;16.50;97.00;;;;;;4860386;29;20037;-72
2021/07/24 05:09:49;;;;;;;13.65;7.85;;;16.50;97.10;;;;;;4860283;29;20054;-73
2021/07/24 05:12:14;;;;;;;16.15;8.35;;;16.60;97.00;;;;;;4860570;29;20338;-72
2021/07/24 05:14:40;;;;;;;14.00;8.07;;;16.60;97.00;;;;;;4860740;29;20037;-75
2021/07/24 05:17:11;;;;;;;12.95;8.00;;;16.70;97.10;;;;;;4860211;29;20041;-71
2021/07/24 05:19:46;;;;;;;14.10;8.38;;;16.70;97.30;;;;;;4860199;29;20427;-72
2021/07/24 05:22:13;;;;;;;12.02;7.22;;;16.70;97.20;;;;;;4859822;29;20044;-72
2021/07/24 05:24:43;;;;;;;14.15;8.27;;;16.80;97.00;;;;;;4843977;29;20212;-72
2021/07/24 05:27:11;;;;;;;15.02;8.57;;;16.80;97.00;;;;;;4860248;29;20462;-72
2021/07/24 05:29:37;;;;;;;14.93;9.05;;;16.90;96.90;;;;;;4843987;29;20062;-72
2021/07/24 05:32:03;;;;;;;16.45;8.90;;;16.90;96.90;;;;;;4859897;29;20089;-72
2021/07/24 05:34:28;;;;;;;18.02;8.43;;;17.00;96.90;;;;;;4859745;29;20038;-73
2021/07/24 05:36:54;;;;;;;15.82;8.40;;;17.00;96.90;;;;;;4860025;29;20460;-72
2021/07/24 05:39:20;;;;;;;14.63;8.07;;;17.10;97.10;;;;;;4843175;29;20086;-71
2021/07/24 05:41:45;;;;;;;13.50;7.50;;;17.10;96.80;;;;;;4860249;29;20069;-73
2021/07/24 05:44:13;;;;;;;12.43;7.43;;;17.20;96.70;;;;;;4859562;29;20120;-74
2021/07/24 05:46:39;;;;;;;11.70;7.03;;;17.20;96.70;;;;;;4843460;29;20038;-72
2021/07/24 05:49:06;;;;;;;14.13;8.13;;;17.30;96.80;;;;;;4841380;29;20044;-72
2021/07/24 05:51:31;;;;;;;15.38;7.13;;;17.40;96.70;;;;;;4841201;29;20067;-73
2021/07/24 05:53:57;;;;;;;16.83;7.60;;;17.40;96.50;;;;;;4841687;29;20282;-74
2021/07/24 05:56:23;;;;;;;12.65;7.22;;;17.50;96.60;;;;;;4841423;29;20105;-72
2021/07/24 05:58:48;;;;;;;14.63;7.13;;;17.50;96.40;;;;;;4841139;29;20046;-73
2021/07/24 06:01:14;;;;;;;15.35;7.68;;;17.70;96.40;;;;;;4840070;29;20492;-72
2021/07/24 06:03:40;;;;;;;14.93;6.93;;;17.70;96.40;;;;;;4840702;29;20080;-73
2021/07/24 06:06:06;;;;;;;13.02;6.32;;;17.70;96.20;;;;;;4840803;29;20346;-72
2021/07/24 06:08:31;;;;;;;15.77;8.25;;;17.80;96.20;;;;;;4841267;29;20540;-74
2021/07/24 06:11:04;;;;;;;17.95;7.22;;;17.90;96.20;;;;;;4840695;29;20034;-73
2021/07/24 06:13:31;;;;;;;11.32;7.35;;;18.10;96.10;;;;;;4841181;29;20282;-77
2021/07/24 06:16:00;;;;;;;11.70;6.60;;;18.20;96.00;;;;;;4840871;29;20058;-72
2021/07/24 06:18:25;;;;;;;16.50;7.28;;;18.20;95.90;;;;;;4840807;29;20042;-73
2021/07/24 06:20:51;;;;;;;16.85;7.10;;;18.30;95.80;;;;;;4841185;29;20048;-74
2021/07/24 06:23:18;;;;;;;12.95;6.78;;;18.40;95.70;;;;;;4840598;29;20038;-73
2021/07/24 06:25:48;;;;;;;14.43;6.50;;;18.50;95.80;;;;;;4840906;29;20094;-74
2021/07/24 06:28:14;;;;;;;15.88;7.43;;;18.50;95.70;;;;;;4840836;29;20516;-73
2021/07/24 06:30:40;;;;;;;13.43;6.70;;;18.60;95.80;;;;;;4840312;29;20191;-72
2021/07/24 06:33:06;;;;;;;15.50;7.28;;;18.60;95.70;;;;;;4840523;29;20124;-71
2021/07/24 06:35:32;;;;;;;14.95;6.88;;;18.70;95.70;;;;;;4840749;29;20116;-71
2021/07/24 06:37:58;;;;;;;10.45;6.00;;;18.70;95.90;;;;;;4840444;29;20454;-72
2021/07/24 06:40:25;;;;;;;12.27;6.30;;;18.70;95.80;;;;;;4840463;29;20129;-71
2021/07/24 06:42:51;;;;;;;13.07;7.05;;;18.80;95.90;;;;;;4840213;29;20062;-71
2021/07/24 06:45:17;;;;;;;17.17;7.35;;;18.80;95.70;;;;;;4840408;29;20361;-71
2021/07/24 06:47:42;;;;;;;12.73;7.10;;;18.90;95.60;;;;;;4840931;29;20030;-70
2021/07/24 06:50:08;;;;;;;12.52;6.53;;;18.90;95.60;;;;;;4839899;29;20062;-71
2021/07/24 06:52:34;;;;;;;10.90;6.55;;;19.00;95.60;;;;;;4840262;29;20413;-69
2021/07/24 06:54:59;;;;;;;15.13;7.05;;;19.10;95.70;;;;;;4833168;29;20034;-73
2021/07/24 06:57:25;;;;;;;15.98;7.20;;;19.10;95.30;;;;;;4822088;29;20360;-72
2021/07/24 06:59:50;;;;;;;13.65;6.47;;;19.20;95.30;;;;;;4822688;29;20128;-72
2021/07/24 07:02:16;;;;;;;13.13;6.53;;;19.30;95.20;;;;;;4817568;29;20363;-72
2021/07/24 07:04:42;;;;;;;18.02;7.18;;;19.40;95.10;;;;;;4803678;29;20035;-72
2021/07/24 07:07:07;;;;;;;13.63;6.15;;;19.40;94.90;;;;;;4803846;29;20045;-71
2021/07/24 07:09:34;;;;;;;13.32;6.57;;;19.50;94.90;;;;;;4803642;29;20039;-72
2021/07/24 07:12:00;;;;;;;12.95;5.70;;;19.50;94.70;;;;;;4804096;29;20031;-72
2021/07/24 07:14:26;;;;;;;13.40;6.15;;;19.60;94.60;;;;;;4803802;29;20124;-72
2021/07/24 07:16:52;;;;;;;10.32;5.88;;;19.70;94.50;;;;;;4803667;29;20039;-71
2021/07/24 07:19:19;;;;;;;7.22;4.93;;;19.80;94.30;;;;;;4803758;29;20543;-73
2021/07/24 07:21:45;;;;;;;11.13;5.68;;;19.90;94.30;;;;;;4803633;29;20035;-72
2021/07/24 07:24:10;;;;;;;11.63;5.63;;;19.90;94.00;;;;;;4803467;29;20384;-71
2021/07/24 07:26:36;;;;;;;14.35;5.22;;;20.00;94.00;;;;;;4804083;29;20109;-71
2021/07/24 07:29:05;;;;;;;11.63;5.53;;;20.10;94.00;;;;;;4803548;29;20066;-72
2021/07/24 07:31:31;;;;;;;13.75;5.68;;;20.20;94.20;;;;;;4787355;29;20495;-72
2021/07/24 07:33:57;;;;;;;11.48;5.68;;;20.40;94.00;;;;;;4803554;29;20031;-71
2021/07/24 07:36:23;;;;;;;12.90;5.47;;;20.40;93.80;;;;;;4787333;29;20023;-73
2021/07/24 07:38:48;;;;;;;7.82;5.38;;;20.50;93.50;;;;;;4804516;29;20027;-71
2021/07/24 07:41:14;;;;;;;12.70;5.57;;;20.60;93.30;;;;;;4803562;29;20039;-72
2021/07/24 07:43:40;;;;;;;13.07;5.40;;;20.70;93.20;;;;;;4803434;29;20089;-72
2021/07/24 07:46:05;;;;;;;10.20;5.65;;;20.80;93.20;;;;;;4803427;29;20074;-72
2021/07/24 07:48:35;;;;;;;43.65;13.52;;;20.90;93.20;;;;;;4787155;29;20042;-72
2021/07/24 07:51:02;;;;;;;20.02;7.10;;;21.00;93.10;;;;;;4803600;29;20055;-72
2021/07/24 07:53:27;;;;;;;11.65;5.20;;;21.10;92.80;;;;;;4803281;29;20138;-72
2021/07/24 07:55:53;;;;;;;7.55;4.78;;;21.30;92.60;;;;;;4803066;29;20437;-72
2021/07/24 07:58:19;;;;;;;10.80;5.10;;;21.50;92.40;;;;;;4802937;29;20178;-72
2021/07/24 08:00:44;;;;;;;10.75;4.53;;;21.80;92.00;;;;;;4803807;29;20034;-72
2021/07/24 08:03:10;;;;;;;7.60;4.88;;;22.00;91.80;;;;;;4816818;29;20520;-72
2021/07/24 08:05:35;;;;;;;10.63;4.38;;;22.10;91.80;;;;;;4823927;29;20038;-72
2021/07/24 08:08:01;;;;;;;8.85;4.60;;;22.20;91.40;;;;;;4824480;29;20035;-72
2021/07/24 08:10:27;;;;;;;9.38;4.13;;;22.50;91.40;;;;;;4824208;29;20050;-71
2021/07/24 08:12:53;;;;;;;9.35;4.03;;;22.70;90.70;;;;;;4824388;29;20039;-73
2021/07/24 08:15:19;;;;;;;8.13;4.75;;;22.90;90.70;;;;;;4808336;29;20042;-73
2021/07/24 08:17:45;;;;;;;8.65;4.40;;;23.50;90.80;;;;;;4824791;29;20034;-72
2021/07/24 08:20:11;;;;;;;9.07;4.13;;;24.50;90.10;;;;;;4824072;29;20049;-73
2021/07/24 08:22:37;;;;;;;15.18;4.65;;;25.30;89.00;;;;;;4824074;29;20465;-72
2021/07/24 08:25:04;;;;;;;6.57;3.60;;;26.20;87.60;;;;;;4824049;29;20102;-71
2021/07/24 08:27:32;;;;;;;9.80;4.07;;;27.20;83.10;;;;;;4823911;29;20037;-73
2021/07/24 08:29:57;;;;;;;8.45;4.25;;;28.00;80.70;;;;;;4808009;29;20129;-71
2021/07/24 08:32:23;;;;;;;10.65;3.78;;;28.70;77.90;;;;;;4823990;29;20180;-72
2021/07/24 08:34:52;;;;;;;11.77;4.50;;;29.40;76.00;;;;;;4823972;29;20031;-72
2021/07/24 08:37:18;;;;;;;7.50;3.97;;;29.70;73.00;;;;;;4823799;29;20041;-72
2021/07/24 08:39:44;;;;;;;8.48;3.60;;;30.20;72.20;;;;;;4823977;29;20042;-72
2021/07/24 08:42:31;;;;;;;5.60;4.07;;;30.80;70.50;;;;;;4823835;29;20030;-72
2021/07/24 08:44:58;;;;;;;7.80;3.90;;;31.30;68.40;;;;;;4824839;29;20462;-73
2021/07/24 08:47:24;;;;;;;5.20;3.45;;;31.70;64.90;;;;;;4823649;29;20034;-72
2021/07/24 08:49:49;;;;;;;5.07;3.30;;;31.80;63.50;;;;;;4823863;29;20041;-72
2021/07/24 08:52:19;;;;;;;9.30;4.38;;;32.70;63.00;;;;;;4823631;29;20030;-74
2021/07/24 08:54:44;;;;;;;4.95;3.85;;;33.10;61.20;;;;;;4823607;29;20512;-72
2021/07/24 08:57:16;;;;;;;5.47;3.63;;;33.40;60.30;;;;;;4824047;29;20030;-72
2021/07/24 08:59:43;;;;;;;9.23;6.28;;;33.60;59.10;;;;;;4823950;29;20034;-72
2021/07/24 09:02:09;;;;;;;10.80;7.53;;;33.40;58.00;;;;;;4823242;29;20062;-72
2021/07/24 09:04:36;;;;;;;8.10;4.10;;;33.40;57.90;;;;;;4823651;29;20125;-73
2021/07/24 09:07:05;;;;;;;6.22;4.28;;;33.60;57.10;;;;;;4823527;29;20385;-73
2021/07/24 09:09:32;;;;;;;7.55;4.25;;;33.90;56.20;;;;;;4822072;29;20446;-72
2021/07/24 09:11:58;;;;;;;10.70;4.60;;;34.30;55.30;;;;;;4823487;29;20279;-71
2021/07/24 09:14:24;;;;;;;10.68;4.60;;;34.10;55.00;;;;;;4823469;29;20038;-72
2021/07/24 09:16:50;;;;;;;11.32;4.93;;;34.20;55.30;;;;;;4823660;29;20050;-72
2021/07/24 09:19:19;;;;;;;9.93;4.93;;;34.30;54.50;;;;;;4822501;29;20051;-72
2021/07/24 09:21:45;;;;;;;7.95;5.00;;;34.30;54.40;;;;;;4823161;29;20046;-72
2021/07/24 09:24:18;;;;;;;8.73;4.93;;;34.20;54.30;;;;;;4823522;29;20057;-73
2021/07/24 09:26:44;;;;;;;7.35;4.75;;;33.60;54.00;;;;;;4822675;29;20026;-73
2021/07/24 09:29:11;;;;;;;7.40;5.38;;;33.60;55.10;;;;;;4823003;29;20039;-73
2021/07/24 09:31:38;;;;;;;8.50;5.93;;;33.90;54.40;;;;;;4823247;29;20042;-73
2021/07/24 09:34:05;;;;;;;8.90;5.00;;;34.20;54.30;;;;;;4822821;29;20030;-72
2021/07/24 09:36:31;;;;;;;11.00;4.93;;;34.00;54.10;;;;;;4822048;29;20133;-72
2021/07/24 09:39:15;;;;;;;8.18;4.78;;;33.50;54.90;;;;;;4823447;29;20022;-73
2021/07/24 09:41:45;;;;;;;10.02;5.85;;;34.10;53.80;;;;;;4823138;29;20054;-72
2021/07/24 09:44:26;;;;;;;12.30;8.38;;;33.80;54.10;;;;;;4822682;29;20314;-73
2021/07/24 09:46:55;;;;;;;16.48;7.45;;;33.30;53.90;;;;;;4823205;29;20039;-73
2021/07/24 09:49:32;;;;;;;11.15;5.07;;;33.30;55.80;;;;;;4823083;29;20049;-74
2021/07/24 09:52:14;;;;;;;14.90;5.70;;;33.20;55.20;;;;;;4806694;29;20079;-72
2021/07/24 09:54:41;;;;;;;9.95;5.13;;;33.20;55.30;;;;;;4822932;29;20046;-73
2021/07/24 09:57:07;;;;;;;8.45;5.50;;;32.90;55.50;;;;;;4822671;29;20170;-71
2021/07/24 09:59:34;;;;;;;8.13;4.90;;;32.40;56.00;;;;;;4823376;29;20497;-72
2021/07/24 10:02:07;;;;;;;13.40;5.68;;;32.10;56.20;;;;;;4822371;29;20046;-71
2021/07/24 10:04:35;;;;;;;8.75;5.72;;;31.70;57.40;;;;;;4822333;29;20042;-71
2021/07/24 10:07:00;;;;;;;;;;;31.70;57.40;;;;;;4822900;29;20039;-73
2021/07/24 10:09:33;;;;;;;9.13;5.63;;;31.50;57.90;;;;;;4822322;29;19992;-74
2021/07/24 10:12:03;;;;;;;15.57;7.22;;;31.30;57.90;;;;;;4822764;29;20469;-71
2021/07/24 10:14:28;;;;;;;10.43;6.53;;;31.10;58.10;;;;;;4822457;29;20072;-73
2021/07/24 10:16:56;;;;;;;13.05;6.80;;;30.80;59.40;;;;;;4821491;29;20079;-72
2021/07/24 10:19:23;;;;;;;10.45;6.20;;;30.50;59.60;;;;;;4822590;29;20035;-73
2021/07/24 10:21:50;;;;;;;10.75;6.43;;;30.50;60.30;;;;;;4806085;29;20036;-72
2021/07/24 10:24:16;;;;;;;13.17;9.23;;;30.50;59.90;;;;;;4821346;29;20487;-73
2021/07/24 10:27:07;;;;;;;17.88;7.95;;;30.40;59.80;;;;;;4822632;29;20098;-72
2021/07/24 10:29:35;;;;;;;14.07;7.72;;;30.40;59.80;;;;;;4821221;29;20034;-72
2021/07/24 10:32:10;;;;;;;10.65;6.55;;;30.40;60.60;;;;;;4821941;29;20129;-73
2021/07/24 10:34:47;;;;;;;9.80;6.03;;;30.30;60.60;;;;;;4822047;29;20077;-73
2021/07/24 10:37:35;;;;;;;8.05;6.25;;;30.50;60.10;;;;;;4822061;29;20072;-72
2021/07/24 10:40:16;;;;;;;12.57;7.32;;;30.40;60.10;;;;;;4821791;29;20042;-74
2021/07/24 10:42:50;;;;;;;12.30;6.55;;;30.30;59.80;;;;;;4822016;29;20082;-72
2021/07/24 10:45:31;;;;;;;8.93;6.70;;;30.30;60.20;;;;;;4822092;29;20091;-72
2021/07/24 10:48:20;;;;;;;11.90;7.38;;;30.30;61.20;;;;;;4822512;29;20530;-72
2021/07/24 10:50:54;;;;;;;10.63;6.70;;;30.20;60.60;;;;;;4821994;29;20038;-73
2021/07/24 10:53:29;;;;;;;14.30;7.05;;;30.10;61.10;;;;;;4822317;29;20022;-72
2021/07/24 10:55:58;;;;;;;9.45;7.03;;;30.00;61.00;;;;;;4821771;29;20038;-72
2021/07/24 10:58:25;;;;;;;10.52;6.97;;;30.00;61.40;;;;;;4821907;29;20038;-71
2021/07/24 11:00:55;;;;;;;13.38;7.60;;;29.90;61.40;;;;;;4821890;29;20103;-72
2021/07/24 11:03:38;;;;;;;10.88;6.25;;;29.90;61.10;;;;;;4821750;29;20410;-72
2021/07/24 11:06:25;;;;;;;12.45;7.18;;;29.90;61.60;;;;;;4821978;29;20109;-72
2021/07/24 11:09:13;;;;;;;13.27;7.57;;;30.00;61.60;;;;;;4822422;29;20041;-73
2021/07/24 11:11:48;;;;;;;16.08;7.38;;;30.00;61.80;;;;;;4820943;29;20043;-73
2021/07/24 11:14:38;;;;;;;11.00;7.38;;;30.10;61.50;;;;;;4821890;29;20513;-73
2021/07/24 11:17:14;;;;;;;10.93;7.20;;;30.10;61.40;;;;;;4821767;29;20031;-73
2021/07/24 11:19:50;;;;;;;13.20;7.88;;;30.20;61.10;;;;;;4821636;29;20065;-73
2021/07/24 11:22:17;;;;;;;12.73;7.47;;;30.10;61.50;;;;;;4821648;29;20308;-73
2021/07/24 11:25:03;;;;;;;15.60;8.32;;;30.10;61.70;;;;;;4821494;29;20039;-73
2021/07/24 11:27:33;;;;;;;10.48;7.50;;;30.20;62.10;;;;;;4784058;29;20307;-74
2021/07/24 11:30:05;;;;;;;13.32;7.95;;;30.30;61.40;;;;;;4822116;29;20322;-73
2021/07/24 11:32:32;;;;;;;10.20;7.70;;;30.20;60.80;;;;;;4822243;29;20130;-73
2021/07/24 11:34:59;;;;;;;;;;;30.30;61.20;;;;;;4822004;29;20038;-73
2021/07/24 11:37:36;;;;;;;11.45;7.45;;;30.20;61.40;;;;;;4808379;29;20545;-72
2021/07/24 11:40:02;;;;;;;;;;;30.30;61.30;;;;;;4825184;29;20485;-73
2021/07/24 11:42:28;;;;;;;12.68;9.20;;;30.30;60.40;;;;;;4824094;29;19917;-72
2021/07/24 11:44:53;;;;;;;15.90;9.75;;;30.20;61.50;;;;;;4824983;29;20035;-71
2021/07/24 11:47:19;;;;;;;13.90;8.70;;;30.20;61.20;;;;;;4824815;29;20163;-72
2021/07/24 11:49:45;;;;;;;19.10;8.90;;;30.10;61.50;;;;;;4824690;29;20041;-73
2021/07/24 11:52:10;;;;;;;13.77;7.82;;;30.20;61.70;;;;;;4823715;29;20322;-73
2021/07/24 11:54:36;;;;;;;12.10;8.07;;;30.20;61.30;;;;;;4824713;29;20156;-73
2021/07/24 11:57:03;;;;;;;11.40;8.18;;;30.30;60.60;;;;;;4824280;29;20384;-73
2021/07/24 11:59:31;;;;;;;17.85;8.57;;;30.30;60.90;;;;;;4824704;29;20369;-73
2021/07/24 12:01:58;;;;;;;16.75;8.88;;;30.30;61.00;;;;;;4823397;29;20421;-72
2021/07/24 12:04:24;;;;;;;14.32;9.30;;;30.30;61.50;;;;;;4824415;29;20042;-73
2021/07/24 12:06:51;;;;;;;12.25;8.88;;;30.30;61.00;;;;;;4824584;29;20038;-73
2021/07/24 12:09:18;;;;;;;14.63;9.32;;;30.40;60.60;;;;;;4824362;29;20041;-73
2021/07/24 12:12:02;;;;;;;16.80;9.70;;;30.30;60.50;;;;;;4824906;29;20079;-72
2021/07/24 12:14:29;;;;;;;14.55;8.68;;;30.30;60.90;;;;;;4824453;29;20488;-71
2021/07/24 12:17:05;;;;;;;17.95;9.38;;;30.40;60.10;;;;;;4824264;29;20039;-72
2021/07/24 12:19:44;;;;;;;12.43;9.30;;;30.50;59.70;;;;;;4824217;29;20047;-73
2021/07/24 12:22:17;;;;;;;15.10;8.50;;;30.50;60.20;;;;;;4824084;29;20030;-72
2021/07/24 12:24:44;;;;;;;12.85;9.60;;;30.50;60.20;;;;;;4824228;29;20085;-73
2021/07/24 12:27:14;;;;;;;15.80;9.02;;;30.50;58.70;;;;;;4824129;29;20365;-73
2021/07/24 12:29:50;;;;;;;14.10;9.18;;;30.40;58.60;;;;;;4824802;29;20474;-73
2021/07/24 12:32:16;;;;;;;14.93;8.93;;;30.50;58.70;;;;;;4824180;29;20226;-72
2021/07/24 12:34:42;;;;;;;12.98;9.65;;;30.50;59.00;;;;;;4823938;29;20036;-72
2021/07/24 12:37:08;;;;;;;15.55;9.05;;;30.50;58.90;;;;;;4824187;29;20133;-73
2021/07/24 12:39:36;;;;;;;12.57;9.40;;;30.50;58.70;;;;;;4822953;29;20061;-73
2021/07/24 12:42:04;;;;;;;21.50;10.40;;;30.40;58.90;;;;;;4824300;29;20034;-74
2021/07/24 12:44:30;;;;;;;;;;;30.40;58.60;;;;;;4824490;29;20473;-72
2021/07/24 12:47:11;;;;;;;14.70;8.67;;;30.50;58.90;;;;;;4823409;29;19937;-74